createdAt,value
2019-06-08T01:56:56.444Z,13.60
2019-06-08T01:59:27.608Z,13.40
2019-06-08T02:01:58.315Z,13.40
2019-06-08T02:07:01.009Z,13.50
2019-06-08T02:09:32.741Z,13.30
2019-06-08T02:12:04.518Z,13.30
2019-06-08T02:14:36.147Z,12.90
2019-06-08T02:17:07.284Z,13.10
2019-06-08T02:19:38.786Z,13.20
2019-06-08T02:22:09.606Z,12.70
2019-06-08T02:27:10.394Z,12.80
2019-06-08T02:29:41.149Z,13.00
2019-06-08T02:32:12.045Z,13.00
2019-06-08T02:34:42.826Z,13.00
2019-06-08T02:39:44.173Z,13.20
2019-06-08T02:42:15.161Z,13.20
2019-06-08T02:44:45.804Z,13.30
2019-06-08T02:52:20.107Z,13.20
2019-06-08T02:54:51.960Z,13.10
2019-06-08T03:00:05.141Z,13.00
2019-06-08T03:02:39.048Z,12.90
2019-06-08T03:05:13.160Z,12.70
2019-06-08T03:07:45.985Z,12.90
2019-06-08T03:10:17.044Z,12.70
2019-06-08T03:12:49.902Z,12.70
2019-06-08T03:15:31.596Z,12.70
2019-06-08T03:18:01.955Z,12.70
2019-06-08T03:20:33.479Z,12.70
2019-06-08T03:23:06.118Z,12.70
2019-06-08T03:25:47.191Z,12.90
2019-06-08T03:28:09.646Z,12.70
2019-06-08T03:30:47.471Z,12.70
2019-06-08T03:33:14.696Z,12.90
2019-06-08T03:35:56.060Z,12.80
2019-06-08T03:38:17.916Z,12.90
2019-06-08T03:40:49.185Z,13.10
2019-06-08T03:43:20.124Z,13.30
2019-06-08T03:45:51.981Z,13.40
2019-06-08T03:48:22.983Z,13.40
2019-06-08T03:50:53.794Z,13.40
2019-06-08T03:55:55.526Z,13.50
2019-06-08T03:58:27.716Z,13.50
2019-06-08T04:00:58.818Z,13.40
2019-06-08T04:03:35.529Z,13.30
2019-06-08T04:06:06.159Z,13.30
2019-06-08T04:08:37.994Z,13.10
2019-06-08T04:11:09.314Z,13.30
2019-06-08T04:16:12.619Z,13.30
2019-06-08T04:18:44.630Z,13.00
2019-06-08T04:21:16.311Z,13.00
2019-06-08T04:23:48.234Z,13.30
2019-06-08T04:26:19.699Z,13.50
2019-06-08T04:28:50.466Z,13.50
2019-06-08T04:31:24.691Z,13.80
2019-06-08T04:33:55.023Z,13.70
2019-06-08T04:38:56.225Z,13.70
2019-06-08T04:41:27.038Z,13.70
2019-06-08T04:43:57.714Z,13.70
2019-06-08T04:46:28.574Z,13.50
2019-06-08T04:48:59.938Z,13.70
2019-06-08T04:51:30.866Z,14.00
2019-06-08T04:54:01.919Z,14.20
2019-06-08T04:56:32.317Z,14.80
2019-06-08T04:59:03.224Z,15.20
2019-06-08T05:01:34.137Z,15.00
2019-06-08T05:04:04.985Z,14.90
2019-06-08T05:06:41.031Z,14.80
2019-06-08T05:09:12.131Z,15.00
2019-06-08T05:11:49.727Z,15.00
2019-06-08T05:14:21.322Z,15.30
2019-06-08T05:16:53.520Z,15.30
2019-06-08T05:19:24.547Z,15.40
2019-06-08T05:21:55.883Z,15.50
2019-06-08T05:26:56.358Z,15.40
2019-06-08T05:29:27.295Z,15.30
2019-06-08T05:31:57.769Z,15.10
2019-06-08T05:34:28.584Z,15.20
2019-06-08T05:36:59.024Z,15.10
2019-06-08T05:39:29.853Z,15.20
2019-06-08T05:42:00.994Z,15.20
2019-06-08T05:44:31.806Z,15.30
2019-06-08T05:47:02.565Z,14.90
2019-06-08T05:49:33.154Z,15.40
2019-06-08T05:52:03.990Z,15.50
2019-06-08T05:54:35.318Z,15.80
2019-06-08T05:57:06.305Z,16.20
2019-06-08T05:59:37.503Z,16.30
2019-06-08T06:04:40.908Z,16.70
2019-06-08T06:07:12.108Z,17.00
2019-06-08T06:09:45.031Z,17.30
2019-06-08T06:12:18.449Z,17.00
2019-06-08T06:14:49.147Z,16.80
2019-06-08T06:17:20.139Z,16.80
2019-06-08T06:19:51.629Z,16.80
2019-06-08T06:22:22.800Z,16.70
2019-06-08T06:24:54.050Z,16.50
2019-06-08T06:27:25.059Z,16.40
2019-06-08T06:29:55.778Z,16.40
2019-06-08T06:32:26.638Z,16.40
2019-06-08T06:34:57.643Z,16.10
2019-06-08T06:37:28.219Z,16.10
2019-06-08T06:39:58.766Z,16.10
2019-06-08T06:42:29.339Z,16.30
2019-06-08T06:45:00.378Z,16.30
2019-06-08T06:47:32.634Z,16.20
2019-06-08T06:50:04.583Z,15.70
2019-06-08T06:52:35.076Z,16.10
2019-06-08T06:55:07.832Z,16.20
2019-06-08T06:57:38.356Z,16.20
2019-06-08T07:00:11.499Z,16.30
2019-06-08T07:03:01.789Z,16.40
2019-06-08T07:05:32.660Z,16.50
2019-06-08T07:08:03.453Z,16.60
2019-06-08T07:10:34.116Z,17.10
2019-06-08T07:13:05.614Z,17.00
2019-06-08T07:15:41.578Z,17.70
2019-06-08T07:18:11.236Z,17.60
2019-06-08T07:20:42.083Z,17.80
2019-06-08T07:23:13.113Z,17.70
2019-06-08T07:25:48.424Z,18.10
2019-06-08T07:28:39.490Z,17.80
2019-06-08T07:31:15.265Z,17.80
2019-06-08T07:33:46.724Z,17.90
2019-06-08T07:36:19.489Z,17.90
2019-06-08T07:38:51.381Z,17.90
2019-06-08T07:41:23.305Z,18.00
2019-06-08T07:43:54.730Z,17.60
2019-06-08T07:46:26.274Z,17.60
2019-06-08T07:49:02.277Z,17.60
2019-06-08T07:51:33.511Z,17.70
2019-06-08T07:54:04.972Z,18.00
2019-06-08T07:56:36.560Z,17.90
2019-06-08T07:59:08.773Z,17.60
2019-06-08T08:01:40.065Z,17.20
2019-06-08T08:04:12.842Z,17.40
2019-06-08T08:06:43.782Z,17.20
2019-06-08T08:09:18.371Z,17.70
2019-06-08T08:11:50.939Z,18.00
2019-06-08T08:14:22.918Z,18.00
2019-06-08T08:16:54.972Z,18.00
2019-06-08T08:19:26.854Z,17.90
2019-06-08T08:22:18.664Z,17.90
2019-06-08T08:24:38.678Z,18.10
2019-06-08T08:27:13.761Z,18.30
2019-06-08T08:29:47.577Z,18.20
2019-06-08T08:32:23.027Z,18.20
2019-06-08T08:35:14.394Z,18.10
2019-06-08T08:37:58.681Z,18.30
2019-06-08T08:40:30.569Z,18.30
2019-06-08T08:43:01.945Z,18.60
2019-06-08T08:45:37.330Z,18.70
2019-06-08T08:48:23.923Z,18.60
2019-06-08T08:50:41.895Z,18.20
2019-06-08T08:53:13.808Z,18.50
2019-06-08T08:55:48.026Z,18.40
2019-06-08T08:58:25.297Z,18.50
2019-06-08T09:00:59.801Z,18.40
2019-06-08T09:03:33.614Z,18.70
2019-06-08T09:06:08.498Z,18.70
2019-06-08T09:08:39.145Z,18.70
2019-06-08T09:11:13.605Z,19.10
2019-06-08T09:13:48.806Z,19.10
2019-06-08T09:16:25.114Z,19.20
2019-06-08T09:19:02.879Z,19.30
2019-06-08T09:21:32.904Z,19.00
2019-06-08T09:24:04.409Z,18.90
2019-06-08T09:26:42.290Z,19.50
2019-06-08T09:29:13.818Z,19.50
2019-06-08T09:31:44.729Z,19.50
2019-06-08T09:34:19.882Z,19.20
2019-06-08T09:36:54.960Z,18.90
2019-06-08T09:39:28.514Z,18.80
2019-06-08T09:42:03.574Z,19.10
2019-06-08T09:44:41.113Z,19.20
2019-06-08T09:47:18.081Z,19.10
2019-06-08T09:49:49.859Z,19.20
2019-06-08T09:52:24.991Z,19.20
2019-06-08T09:55:03.713Z,19.80
2019-06-08T09:57:34.400Z,19.40
2019-06-08T10:00:17.562Z,19.50
2019-06-08T10:02:39.669Z,19.70
2019-06-08T10:05:10.867Z,20.30
2019-06-08T10:07:42.181Z,20.10
2019-06-08T10:10:13.225Z,20.30
2019-06-08T10:12:44.184Z,20.40
2019-06-08T10:15:17.733Z,20.30
2019-06-08T10:17:49.543Z,20.00
2019-06-08T10:20:20.570Z,20.00
2019-06-08T10:22:51.451Z,20.30
2019-06-08T10:25:24.202Z,20.20
2019-06-08T10:27:59.510Z,20.00
2019-06-08T10:30:32.193Z,20.10
2019-06-08T10:33:05.134Z,19.60
2019-06-08T10:35:38.248Z,19.50
2019-06-08T10:38:11.839Z,19.50
2019-06-08T10:41:08.346Z,19.60
2019-06-08T10:43:38.310Z,19.80
2019-06-08T10:46:14.697Z,19.70
2019-06-08T10:48:40.764Z,19.80
2019-06-08T10:51:13.068Z,19.80
2019-06-08T10:53:49.351Z,20.10
2019-06-08T10:56:18.883Z,20.30
2019-06-08T10:58:49.827Z,20.30
2019-06-08T11:01:21.008Z,20.40
2019-06-08T11:03:52.204Z,20.50
2019-06-08T11:06:23.522Z,20.40
2019-06-08T11:08:54.641Z,20.30
2019-06-08T11:11:25.453Z,20.50
2019-06-08T11:13:58.435Z,20.80
2019-06-08T11:16:29.269Z,20.60
2019-06-08T11:19:00.987Z,20.60
2019-06-08T11:21:32.607Z,20.70
2019-06-08T11:24:14.446Z,21.10
2019-06-08T11:26:40.241Z,20.90
2019-06-08T11:29:13.676Z,20.70
2019-06-08T11:31:43.229Z,20.50
2019-06-08T11:34:14.175Z,20.70
2019-06-08T11:36:48.900Z,20.30
2019-06-08T11:39:19.532Z,20.20
2019-06-08T11:41:50.181Z,20.00
2019-06-08T11:44:21.518Z,20.30
2019-06-08T11:46:53.667Z,20.10
2019-06-08T11:49:27.725Z,20.20
2019-06-08T11:54:37.054Z,20.10
2019-06-08T11:57:02.859Z,20.10
2019-06-08T11:59:37.294Z,20.80
2019-06-08T12:02:10.517Z,20.70
2019-06-08T12:04:44.795Z,21.00
2019-06-08T12:07:15.924Z,21.00
2019-06-08T12:09:49.888Z,21.60
2019-06-08T12:12:21.448Z,21.50
2019-06-08T12:14:53.600Z,21.30
2019-06-08T12:17:24.526Z,21.20
2019-06-08T12:19:58.446Z,20.80
2019-06-08T12:22:29.335Z,20.60
2019-06-08T12:25:00.636Z,20.60
2019-06-08T12:27:36.336Z,20.70
2019-06-08T12:30:08.936Z,20.70
2019-06-08T12:32:39.320Z,20.70
2019-06-08T12:35:11.279Z,20.80
2019-06-08T12:37:43.538Z,20.60
2019-06-08T12:40:16.077Z,20.60
2019-06-08T12:42:47.311Z,20.50
2019-06-08T12:45:20.317Z,20.10
2019-06-08T12:47:51.061Z,20.80
2019-06-08T12:50:22.538Z,21.00
2019-06-08T12:52:53.632Z,23.70
2019-06-08T12:55:26.227Z,21.00
2019-06-08T12:57:58.125Z,21.60
2019-06-08T13:00:30.056Z,22.30
2019-06-08T13:03:00.981Z,22.30
2019-06-08T13:05:32.136Z,21.70
2019-06-08T13:08:03.396Z,21.80
2019-06-08T13:10:38.224Z,21.20
2019-06-08T13:13:11.048Z,21.50
2019-06-08T13:15:42.700Z,20.70
2019-06-08T13:18:13.763Z,20.60
2019-06-08T13:20:51.447Z,20.90
2019-06-08T13:23:21.216Z,20.90
2019-06-08T13:25:52.850Z,20.50
2019-06-08T13:28:25.385Z,20.70
2019-06-08T13:30:57.983Z,20.50
2019-06-08T13:33:29.941Z,20.50
2019-06-08T13:36:01.172Z,20.70
2019-06-08T13:38:31.961Z,20.50
2019-06-08T13:41:04.421Z,20.70
2019-06-08T13:43:35.297Z,20.70
2019-06-08T13:46:08.047Z,20.60
2019-06-08T13:48:39.070Z,20.50
2019-06-08T13:51:11.943Z,20.80
2019-06-08T13:53:43.208Z,21.10
2019-06-08T13:56:17.918Z,21.60
2019-06-08T13:58:48.470Z,21.80
2019-06-08T14:01:19.706Z,21.80
2019-06-08T14:03:53.126Z,21.90
2019-06-08T14:06:25.004Z,22.10
2019-06-08T14:08:58.107Z,22.60
2019-06-08T14:11:29.118Z,22.30
2019-06-08T14:14:01.334Z,22.20
2019-06-08T14:16:35.086Z,22.20
2019-06-08T14:19:08.454Z,21.20
2019-06-08T14:21:41.916Z,22.10
2019-06-08T14:24:14.858Z,22.80
2019-06-08T14:26:48.597Z,23.00
2019-06-08T14:29:21.342Z,22.90
2019-06-08T14:31:54.082Z,23.00
2019-06-08T14:34:26.908Z,23.50
2019-06-08T14:36:59.384Z,23.50
2019-06-08T14:39:31.803Z,23.10
2019-06-08T14:42:02.971Z,23.40
2019-06-08T14:44:38.058Z,23.00
2019-06-08T14:47:16.839Z,22.90
2019-06-08T14:49:48.914Z,22.60
2019-06-08T14:52:23.517Z,22.60
2019-06-08T14:54:53.657Z,24.10
2019-06-08T14:57:25.283Z,24.70
2019-06-08T14:59:59.842Z,25.00
2019-06-08T15:05:01.742Z,25.30
2019-06-08T15:07:32.847Z,25.10
2019-06-08T15:10:04.311Z,24.60
2019-06-08T15:12:39.354Z,23.40
2019-06-08T15:15:53.011Z,24.70
2019-06-08T15:18:25.840Z,24.60
2019-06-08T15:20:58.130Z,24.30
2019-06-08T15:23:32.365Z,24.50
2019-06-08T15:26:01.928Z,24.60
2019-06-08T15:28:36.496Z,24.20
2019-06-08T15:31:08.471Z,24.90
2019-06-08T15:33:39.638Z,24.80
2019-06-08T15:36:11.787Z,25.00
2019-06-08T15:38:42.925Z,24.80
2019-06-08T15:41:14.060Z,24.80
2019-06-08T15:43:48.098Z,25.30
2019-06-08T15:46:18.377Z,25.20
2019-06-08T15:48:50.171Z,24.80
2019-06-08T15:51:22.101Z,24.70
2019-06-08T15:53:53.578Z,24.10
2019-06-08T15:56:38.223Z,23.50
2019-06-08T15:58:59.033Z,25.00
2019-06-08T16:01:31.534Z,25.00
2019-06-08T16:04:04.277Z,22.90
2019-06-08T16:06:36.947Z,25.30
2019-06-08T16:09:16.217Z,25.20
2019-06-08T16:11:47.383Z,25.20
2019-06-08T16:14:18.006Z,25.80
2019-06-08T16:16:49.292Z,24.50
2019-06-08T16:21:50.327Z,24.40
2019-06-08T16:24:23.032Z,23.10
2019-06-08T16:26:54.163Z,22.90
2019-06-08T16:29:29.045Z,22.80
2019-06-08T16:31:59.727Z,22.20
2019-06-08T16:34:31.377Z,22.10
2019-06-08T16:37:02.245Z,21.50
2019-06-08T16:39:33.146Z,21.40
2019-06-08T16:42:04.006Z,21.60
2019-06-08T16:44:35.172Z,22.10
2019-06-08T16:47:07.476Z,21.80
2019-06-08T16:49:39.611Z,22.90
2019-06-08T16:52:10.796Z,23.20
2019-06-08T16:54:41.880Z,23.70
2019-06-08T16:57:13.052Z,24.70
2019-06-08T16:59:44.388Z,24.60
2019-06-08T17:02:16.949Z,24.50
2019-06-08T17:04:48.043Z,24.00
2019-06-08T17:07:19.188Z,23.30
2019-06-08T17:09:50.307Z,24.30
2019-06-08T17:12:22.728Z,24.30
2019-06-08T17:14:53.562Z,23.80
2019-06-08T17:17:24.456Z,22.80
2019-06-08T17:19:55.277Z,22.80
2019-06-08T17:22:45.256Z,20.70
2019-06-08T17:25:17.887Z,20.60
2019-06-08T17:27:49.069Z,20.00
2019-06-08T17:30:20.081Z,19.00
2019-06-08T17:32:51.158Z,18.20
2019-06-08T17:35:22.154Z,18.40
2019-06-08T17:37:52.897Z,18.20
2019-06-08T17:40:26.129Z,17.70
2019-06-08T17:42:57.628Z,17.60
2019-06-08T17:45:28.917Z,17.60
2019-06-08T17:48:01.198Z,17.30
2019-06-08T17:50:32.647Z,17.20
2019-06-08T17:53:03.796Z,17.40
2019-06-08T17:55:35.135Z,17.50
2019-06-08T17:58:05.974Z,17.50
2019-06-08T18:00:37.464Z,17.70
2019-06-08T18:03:08.879Z,17.80
2019-06-08T18:05:42.479Z,17.50
2019-06-08T18:08:12.562Z,19.10
2019-06-08T18:10:44.420Z,19.20
2019-06-08T18:13:18.062Z,19.60
2019-06-08T18:15:48.436Z,18.60
2019-06-08T18:18:20.507Z,18.60
2019-06-08T18:20:52.367Z,18.00
2019-06-08T18:23:23.461Z,17.40
2019-06-08T18:25:54.068Z,17.80
2019-06-08T18:28:27.720Z,17.80
2019-06-08T18:30:58.517Z,17.70
2019-06-08T18:33:29.323Z,17.20
2019-06-08T18:36:00.353Z,17.20
2019-06-08T18:38:31.269Z,19.30
2019-06-08T18:43:33.152Z,20.00
2019-06-08T18:46:07.085Z,20.20
2019-06-08T18:48:41.495Z,20.60
2019-06-08T18:51:12.730Z,20.70
2019-06-08T18:56:17.781Z,21.10
2019-06-08T18:58:52.868Z,21.00
2019-06-08T19:01:22.997Z,20.70
2019-06-08T19:13:59.929Z,18.60
2019-06-08T19:16:31.020Z,18.30
2019-06-08T19:19:01.907Z,17.80
2019-06-08T19:21:33.108Z,17.70
2019-06-08T19:24:04.473Z,17.10
2019-06-08T19:26:39.376Z,16.90
2019-06-08T19:29:08.687Z,16.80
2019-06-08T19:31:42.319Z,16.60
2019-06-08T19:34:12.242Z,16.70
2019-06-08T19:36:44.232Z,16.30
2019-06-08T19:39:17.644Z,16.10
2019-06-08T19:41:50.159Z,16.30
2019-06-08T19:44:21.145Z,16.00
2019-06-08T19:51:54.053Z,15.50
2019-06-08T19:54:26.868Z,15.30
2019-06-08T19:56:57.705Z,15.30
2019-06-08T19:59:28.924Z,15.10
2019-06-08T20:02:00.093Z,15.00
2019-06-08T20:04:31.426Z,14.80
2019-06-08T20:07:03.801Z,14.80
2019-06-08T20:09:34.745Z,14.70
2019-06-08T20:12:07.635Z,14.50
2019-06-08T20:14:38.357Z,14.40
2019-06-08T20:17:09.291Z,14.20
2019-06-08T20:19:40.852Z,14.20
2019-06-08T20:22:11.618Z,14.10
2019-06-08T20:24:44.082Z,14.20
2019-06-08T20:27:17.239Z,13.90
2019-06-08T20:29:51.362Z,13.80
2019-06-08T20:32:23.662Z,13.60
2019-06-08T20:34:57.029Z,13.60
2019-06-08T20:37:28.242Z,13.60
2019-06-08T20:40:10.145Z,13.50
2019-06-08T20:42:33.088Z,13.10
2019-06-08T20:47:36.021Z,13.40
2019-06-08T20:50:07.481Z,13.30
2019-06-08T20:55:08.909Z,13.30
2019-06-08T20:57:40.061Z,13.40
2019-06-08T21:00:12.463Z,12.90
2019-06-08T21:02:43.958Z,12.50
2019-06-08T21:05:18.272Z,12.70
2019-06-08T21:07:52.868Z,12.80
2019-06-08T21:10:24.512Z,12.90
2019-06-08T21:12:56.416Z,12.80
2019-06-08T21:15:28.899Z,13.00
2019-06-08T21:17:59.842Z,12.80
2019-06-08T21:20:30.440Z,12.70
2019-06-08T21:23:01.375Z,12.70
2019-06-08T21:25:33.015Z,12.70
2019-06-08T21:28:03.978Z,12.70
2019-06-08T21:30:37.559Z,12.80
2019-06-08T21:33:08.342Z,12.80
2019-06-08T21:35:39.404Z,12.70
2019-06-08T21:40:41.591Z,12.70
2019-06-08T21:43:12.222Z,12.70
2019-06-08T21:45:43.024Z,12.50
2019-06-08T21:48:13.919Z,12.60
2019-06-08T21:50:44.400Z,12.60
2019-06-08T21:53:14.863Z,12.40
2019-06-08T21:55:45.647Z,12.40
2019-06-08T22:00:49.983Z,12.40
2019-06-08T22:03:22.888Z,12.60
2019-06-08T22:08:24.654Z,12.70
2019-06-08T22:10:58.965Z,12.60
2019-06-08T22:13:28.328Z,12.60
2019-06-08T22:16:02.054Z,12.50
2019-06-08T22:23:32.129Z,12.50
2019-06-08T22:28:32.748Z,12.60
2019-06-08T22:31:03.872Z,12.60
2019-06-08T22:33:34.534Z,12.40
2019-06-08T22:36:05.264Z,12.40
2019-06-08T22:38:37.315Z,12.50
2019-06-08T22:41:08.225Z,12.80
2019-06-08T22:43:40.007Z,12.50
2019-06-08T22:46:10.695Z,12.60
2019-06-08T22:48:41.314Z,12.50
2019-06-08T22:51:11.907Z,12.30
2019-06-08T22:53:42.803Z,12.60
2019-06-08T22:58:43.077Z,12.60
2019-06-08T23:01:13.584Z,12.50
2019-06-08T23:03:44.230Z,12.60
2019-06-08T23:06:17.416Z,12.50
2019-06-08T23:08:48.103Z,12.50
2019-06-08T23:11:19.022Z,12.40
2019-06-08T23:13:49.949Z,12.50
2019-06-08T23:16:20.483Z,12.30
2019-06-08T23:18:51.121Z,12.40
2019-06-08T23:21:21.740Z,12.30
2019-06-08T23:23:52.273Z,12.00
2019-06-08T23:28:52.493Z,11.90
2019-06-08T23:33:54.640Z,11.70
2019-06-08T23:36:51.670Z,11.90
2019-06-08T23:38:58.998Z,11.90
2019-06-08T23:41:29.743Z,11.70
2019-06-08T23:44:01.432Z,11.80
2019-06-08T23:46:32.525Z,11.70
2019-06-08T23:49:04.315Z,11.40
2019-06-08T23:51:37.969Z,12.00
2019-06-08T23:54:12.002Z,11.60
2019-06-08T23:56:40.095Z,11.50
